Dorset, Vermont
Current Conditions -  °F | °C
As of 10:53 PM on Tuesday 27 Jan 2015 (Local Time) from KGFL Reporting Station
Overcast Overcast  
Wind Chill:   Ceiling: 6000
Heat Index: 16°   Visibility: 10mi
Dew Point:   Wind: 6mph
Humidity: 52%   Direction: 330°NNW
Pressure: 29.87"   Gusts: NA
Location:  43.26°N, 73.1°W
Report Text: KGFL 280353Z AUTO 33005KT 10SM BKN060 OVC085 M09/M17 A2987 RMK AO2 SLP129 T10891172
Loading
Personal Weather Stations






























Interactive Weather Map New forecast layout! Learn more

10-Day Weather Forecast

Advertisements
Track Severe Weather on mobile